Time;durP1;ratioP1;P1;durP2;ratioP2;P2;SDS_P1;SDS_P2;PMS_P1;PMS_P2;Temp;Humidity;BMP_temperature;BMP_pressure;BME280_temperature;BME280_humidity;BME280_pressure;Samples;Min_cycle;Max_cycle;Signal;HPM_P1;HPM_P2
2022/12/28 00:04:01;;;;;;;6.6;4.1;;;;;;;3.7;75.5;99730;;;;
2022/12/28 00:14:01;;;;;;;6.6;4.1;;;;;;;3.5;75.7;99730;;;;
2022/12/28 00:24:01;;;;;;;6.6;4.1;;;;;;;3.4;76.2;99730;;;;
2022/12/28 00:34:01;;;;;;;9.3;4.7;;;;;;;3.4;76.2;99720;;;;
2022/12/28 00:44:01;;;;;;;9.3;4.7;;;;;;;3.2;76.5;99720;;;;
2022/12/28 00:55:01;;;;;;;9.3;4.7;;;;;;;3.2;76.5;99730;;;;
2022/12/28 01:05:01;;;;;;;10;5.4;;;;;;;3.1;76.6;99740;;;;
2022/12/28 01:15:01;;;;;;;10;5.4;;;;;;;2.9;77;99740;;;;
2022/12/28 01:25:01;;;;;;;10;5.4;;;;;;;2.9;77.5;99740;;;;
2022/12/28 01:36:01;;;;;;;6.8;4.1;;;;;;;2.8;78;99730;;;;
2022/12/28 01:47:01;;;;;;;6.8;4.1;;;;;;;2.7;78.2;99720;;;;
2022/12/28 01:57:01;;;;;;;6.8;4.1;;;;;;;2.7;78.3;99710;;;;
2022/12/28 02:07:01;;;;;;;7.2;4.7;;;;;;;2.4;78.7;99710;;;;
2022/12/28 02:17:01;;;;;;;7.2;4.7;;;;;;;2.2;78.9;99690;;;;
2022/12/28 02:28:01;;;;;;;7.2;4.7;;;;;;;2;79.4;99680;;;;
2022/12/28 02:38:01;;;;;;;6.2;3.2;;;;;;;1.9;79.8;99690;;;;
2022/12/28 02:59:01;;;;;;;6.2;3.2;;;;;;;1.7;79.9;99660;;;;
2022/12/28 03:09:01;;;;;;;6.1;3.6;;;;;;;1.6;80.2;99630;;;;
2022/12/28 03:39:03;;;;;;;8.1;2.5;;;;;;;1.6;79.9;99610;;;;
2022/12/28 03:50:01;;;;;;;8.1;2.5;;;;;;;1.5;80;99620;;;;
2022/12/28 04:00:01;;;;;;;8.1;2.5;;;;;;;1.5;79.8;99630;;;;
2022/12/28 04:10:01;;;;;;;5.2;2.5;;;;;;;1.5;79.5;99610;;;;
2022/12/28 04:21:01;;;;;;;5.2;2.5;;;;;;;1.4;79.5;99610;;;;
2022/12/28 04:31:01;;;;;;;5.2;2.5;;;;;;;1.4;79.2;99600;;;;
2022/12/28 04:41:01;;;;;;;4.3;2.2;;;;;;;1.5;78.7;99590;;;;
2022/12/28 04:51:02;;;;;;;4.3;2.2;;;;;;;1.5;78.4;99580;;;;
2022/12/28 05:02:01;;;;;;;4.3;2.2;;;;;;;1.4;78.3;99560;;;;
2022/12/28 05:12:02;;;;;;;4.9;2;;;;;;;1.5;77.8;99570;;;;
2022/12/28 05:23:01;;;;;;;4.9;2;;;;;;;1.5;77.7;99560;;;;
2022/12/28 05:33:01;;;;;;;4.2;1.9;;;;;;;1.5;77.4;99560;;;;
2022/12/28 05:43:01;;;;;;;4.2;1.9;;;;;;;1.5;77.4;99550;;;;
2022/12/28 05:54:03;;;;;;;4.2;1.9;;;;;;;1.4;77.4;99550;;;;
2022/12/28 06:04:01;;;;;;;4.6;1.8;;;;;;;1.4;77.3;99540;;;;
2022/12/28 06:15:02;;;;;;;4.6;1.8;;;;;;;1.4;76.9;99530;;;;
2022/12/28 06:26:01;;;;;;;4.6;1.8;;;;;;;1.2;77.1;99530;;;;
2022/12/28 06:36:01;;;;;;;3.9;1.9;;;;;;;1.4;76.9;99520;;;;
2022/12/28 06:46:01;;;;;;;3.9;1.9;;;;;;;1.5;76.6;99520;;;;
2022/12/28 06:57:01;;;;;;;3.9;1.9;;;;;;;1.6;76.6;99510;;;;
2022/12/28 07:08:01;;;;;;;3.9;2.2;;;;;;;1.6;76.6;99500;;;;
2022/12/28 07:18:01;;;;;;;3.9;2.2;;;;;;;1.7;76.8;99480;;;;
2022/12/28 07:28:02;;;;;;;3.9;2.2;;;;;;;1.9;76.5;99480;;;;
2022/12/28 07:38:01;;;;;;;3.9;1.9;;;;;;;2;76;99470;;;;
2022/12/28 07:48:02;;;;;;;3.9;1.9;;;;;;;2.5;75.1;99460;;;;
2022/12/28 07:59:01;;;;;;;3.9;1.9;;;;;;;2.9;73.7;99460;;;;
2022/12/28 08:09:02;;;;;;;5.8;2.8;;;;;;;3.1;72.9;99460;;;;
2022/12/28 08:19:02;;;;;;;5.8;2.8;;;;;;;3.2;72.8;99450;;;;
2022/12/28 08:29:02;;;;;;;5.8;2.8;;;;;;;3.4;71.8;99440;;;;
2022/12/28 08:40:02;;;;;;;6.4;3.8;;;;;;;3.7;71.7;99440;;;;
2022/12/28 08:50:01;;;;;;;6.4;3.8;;;;;;;3.8;71.3;99450;;;;
2022/12/28 09:00:02;;;;;;;6.4;3.8;;;;;;;4.1;70.9;99450;;;;
2022/12/28 09:11:02;;;;;;;5.7;3.3;;;;;;;4.5;69.8;99450;;;;
2022/12/28 09:21:01;;;;;;;5.7;3.3;;;;;;;4.9;68.3;99440;;;;
2022/12/28 09:32:02;;;;;;;5.7;4.1;;;;;;;5.4;67.3;99420;;;;
2022/12/28 09:43:02;;;;;;;6.2;4.1;;;;;;;5.6;66.9;99420;;;;
2022/12/28 09:53:02;;;;;;;6.2;4.1;;;;;;;5.9;66.6;99410;;;;
2022/12/28 10:04:01;;;;;;;5.3;3.3;;;;;;;6.1;64.7;99400;;;;
2022/12/28 10:14:02;;;;;;;5.3;3.3;;;;;;;6.3;64.1;99380;;;;
2022/12/28 10:25:02;;;;;;;5.3;3.3;;;;;;;6.3;63.9;99390;;;;
2022/12/28 10:36:02;;;;;;;8.1;3.8;;;;;;;6.1;63.5;99370;;;;
2022/12/28 10:47:02;;;;;;;8.1;3.8;;;;;;;6.2;63.6;99370;;;;
2022/12/28 10:58:02;;;;;;;8.1;3.8;;;;;;;6.3;63.9;99360;;;;
2022/12/28 11:08:02;;;;;;;7.5;4.2;;;;;;;6.2;63.4;99320;;;;
2022/12/28 11:18:02;;;;;;;7.5;4.2;;;;;;;6.2;63.9;99300;;;;
2022/12/28 11:29:02;;;;;;;7.5;4.2;;;;;;;6.2;63.9;99280;;;;
2022/12/28 11:39:01;;;;;;;9.1;4.9;;;;;;;6.4;64.3;99260;;;;
2022/12/28 11:49:02;;;;;;;9.1;4.9;;;;;;;6.5;64.4;99250;;;;
2022/12/28 12:00:02;;;;;;;9.1;4.9;;;;;;;6.7;63.8;99240;;;;
2022/12/28 12:11:02;;;;;;;11.1;4.7;;;;;;;6.8;63.9;99220;;;;
2022/12/28 12:22:02;;;;;;;11.1;4.7;;;;;;;7.1;64.4;99190;;;;
2022/12/28 12:32:02;;;;;;;10.4;7.9;;;;;;;7.7;62.7;99180;;;;
2022/12/28 12:42:02;;;;;;;10.4;7.9;;;;;;;8;61.2;99160;;;;
2022/12/28 12:52:02;;;;;;;10.4;7.9;;;;;;;7.9;61.7;99150;;;;
2022/12/28 13:02:02;;;;;;;7.2;4.4;;;;;;;8;61.1;99140;;;;
2022/12/28 13:13:02;;;;;;;7.2;4.4;;;;;;;7.9;60.4;99130;;;;
2022/12/28 13:24:02;;;;;;;7.2;4.4;;;;;;;7.3;61.4;99130;;;;
2022/12/28 13:35:02;;;;;;;5.2;2.4;;;;;;;7.1;62.1;99130;;;;
2022/12/28 13:45:02;;;;;;;5.2;2.4;;;;;;;7;63.2;99110;;;;
2022/12/28 13:55:02;;;;;;;5.2;2.4;;;;;;;6.8;63.3;99090;;;;
2022/12/28 14:06:02;;;;;;;5.5;3.5;;;;;;;6.7;63.6;99060;;;;
2022/12/28 14:16:02;;;;;;;5.5;3.5;;;;;;;6.6;63.6;99060;;;;
2022/12/28 14:26:02;;;;;;;5.5;3.5;;;;;;;6.4;64.4;99070;;;;
2022/12/28 14:37:02;;;;;;;15.9;8.9;;;;;;;6;64.5;99080;;;;
2022/12/28 14:48:02;;;;;;;15.9;8.9;;;;;;;5.6;65.7;99080;;;;
2022/12/28 14:58:02;;;;;;;15.9;8.9;;;;;;;5.4;66.4;99080;;;;
2022/12/28 15:08:02;;;;;;;7.7;4.4;;;;;;;5.3;66.8;99080;;;;
2022/12/28 15:19:02;;;;;;;7.7;4.4;;;;;;;5.2;66.9;99070;;;;
2022/12/28 15:30:02;;;;;;;7.7;4.4;;;;;;;5.1;67.3;99060;;;;
2022/12/28 15:41:02;;;;;;;7.5;3.8;;;;;;;5;67.5;99060;;;;
2022/12/28 15:51:02;;;;;;;7.5;3.8;;;;;;;4.9;68;99050;;;;
2022/12/28 16:01:02;;;;;;;7.5;3.8;;;;;;;4.8;68.5;99050;;;;
2022/12/28 16:12:02;;;;;;;7.7;4.9;;;;;;;4.9;68.2;99030;;;;
2022/12/28 16:23:02;;;;;;;7.7;4.9;;;;;;;4.8;68.6;99030;;;;
2022/12/28 16:33:02;;;;;;;8.8;5.8;;;;;;;4.8;68.3;99030;;;;
2022/12/28 16:43:02;;;;;;;8.8;5.8;;;;;;;4.7;68.7;99010;;;;
2022/12/28 16:54:02;;;;;;;8.8;5.8;;;;;;;4.6;69.2;99010;;;;
2022/12/28 17:05:02;;;;;;;11.4;7.5;;;;;;;4.4;69.7;99000;;;;
2022/12/28 17:15:02;;;;;;;11.4;7.5;;;;;;;4.4;69.6;99000;;;;
2022/12/28 17:26:02;;;;;;;11.4;7.5;;;;;;;4.4;69.8;99000;;;;
2022/12/28 17:37:02;;;;;;;11;6.4;;;;;;;4.5;69.5;98990;;;;
2022/12/28 17:48:02;;;;;;;11;6.4;;;;;;;4.5;69;98980;;;;
2022/12/28 17:59:02;;;;;;;11;6.4;;;;;;;4.6;68.6;98970;;;;
2022/12/28 18:10:02;;;;;;;12.4;6.8;;;;;;;4.5;68.8;98990;;;;
2022/12/28 18:21:02;;;;;;;12.4;6.8;;;;;;;4.4;69.3;98980;;;;
2022/12/28 18:32:02;;;;;;;11.8;6.8;;;;;;;4.3;69.4;98980;;;;
2022/12/28 18:43:02;;;;;;;11.8;6.8;;;;;;;4.3;69.7;98970;;;;
2022/12/28 18:53:02;;;;;;;11.8;6.8;;;;;;;4.4;69.4;98970;;;;
2022/12/28 19:03:02;;;;;;;8.3;5.6;;;;;;;4.5;68.9;98960;;;;
2022/12/28 19:13:02;;;;;;;8.3;5.6;;;;;;;4.6;68.7;98960;;;;
2022/12/28 19:24:02;;;;;;;8.3;5.6;;;;;;;4.7;67.8;98960;;;;
2022/12/28 19:35:02;;;;;;;13.4;5.7;;;;;;;4.7;67.5;98960;;;;
2022/12/28 19:46:02;;;;;;;13.4;5.7;;;;;;;4.6;67.4;98940;;;;
2022/12/28 19:56:02;;;;;;;13.4;5.7;;;;;;;4.6;67.4;98950;;;;
2022/12/28 20:06:02;;;;;;;12.5;7.7;;;;;;;4.4;68.2;98940;;;;
2022/12/28 20:17:02;;;;;;;12.5;7.7;;;;;;;4.3;68.2;98920;;;;
2022/12/28 20:28:02;;;;;;;12.5;7.7;;;;;;;4.3;68.1;98920;;;;
2022/12/28 20:38:02;;;;;;;20.8;12.7;;;;;;;4.2;67.1;98910;;;;
2022/12/28 20:49:02;;;;;;;20.8;12.7;;;;;;;4.3;67;98910;;;;
2022/12/28 20:59:02;;;;;;;20.8;12.7;;;;;;;4.3;66.6;98910;;;;
2022/12/28 21:10:02;;;;;;;11;6.3;;;;;;;4.3;66.5;98900;;;;
2022/12/28 21:20:02;;;;;;;11;6.3;;;;;;;4.2;67;98900;;;;
2022/12/28 21:30:02;;;;;;;11;6.3;;;;;;;4;67.2;98900;;;;
2022/12/28 21:41:02;;;;;;;10.8;5.8;;;;;;;3.7;67.8;98890;;;;
2022/12/28 21:51:02;;;;;;;10.8;5.8;;;;;;;3.5;68.6;98870;;;;
2022/12/28 22:12:34;;;;;;;11.1;6.2;;;;;;;3.2;68.7;98850;;;;
2022/12/28 22:22:02;;;;;;;11.1;6.2;;;;;;;3.1;69;98840;;;;
2022/12/28 22:32:02;;;;;;;10.7;4.4;;;;;;;3.1;69.2;98820;;;;
2022/12/28 22:42:02;;;;;;;10.7;4.4;;;;;;;3.1;68.3;98810;;;;
2022/12/28 22:53:02;;;;;;;10.7;4.4;;;;;;;2.8;68.4;98810;;;;
2022/12/28 23:04:02;;;;;;;6.8;3.5;;;;;;;2.6;68.8;98810;;;;
2022/12/28 23:15:18;;;;;;;6.8;3.5;;;;;;;2.3;69.3;98820;;;;
2022/12/28 23:37:02;;;;;;;7.9;3.8;;;;;;;1.9;71;98810;;;;
2022/12/28 23:47:02;;;;;;;7.9;3.8;;;;;;;1.6;71.8;98810;;;;
2022/12/28 23:58:02;;;;;;;7.9;3.8;;;;;;;1.4;73.1;98820;;;;
